Terminal Aerodrome Forecast
Issued by NWS Mt. Holly, NJ

Home | Current Version | Previous Version | Text Only | Print | Product List | Glossary On
Versions: 1 2 3 4 5 6 7 8 9 10 11 12 13 14 15 16 17 18 19
000
FTUS41 KPHI 031721
TAFRDG
TAF
KRDG 031721Z 0318/0418 VRB04KT P6SM SCT040
     FM032200 18006KT P6SM BKN200
     FM040800 08004KT 5SM -RA SCT025 OVC080
     FM041600 05006KT P6SM BKN070=

USA.gov is the U.S. government's official web portal to all federal, state and local government web resources and services.